Time;durP1;ratioP1;P1;durP2;ratioP2;P2;SDS_P1;SDS_P2;PMS_P1;PMS_P2;Temp;Humidity;BMP_temperature;BMP_pressure;BME280_temperature;BME280_humidity;BME280_pressure;Samples;Min_cycle;Max_cycle;Signal;HPM_P1;HPM_P2
2023/06/13 00:01:24;;;;;;;8.57;6.73;;;19.10;99.90;;;;;;5084512;28;20059;-74
2023/06/13 00:03:51;;;;;;;9.05;6.32;;;19.10;99.90;;;;;;5055911;28;20028;-73
2023/06/13 00:06:17;;;;;;;;;;;18.90;99.90;;;;;;5081105;28;20024;-74
2023/06/13 00:08:43;;;;;;;7.57;5.45;;;18.60;99.90;;;;;;5082754;28;19908;-74
2023/06/13 00:11:08;;;;;;;7.50;5.50;;;18.60;99.90;;;;;;5076919;28;20029;-73
2023/06/13 00:13:34;;;;;;;29.53;9.07;;;18.90;99.90;;;;;;5080830;28;20378;-74
2023/06/13 00:16:00;;;;;;;6.50;4.80;;;18.80;99.90;;;;;;5080479;28;20047;-74
2023/06/13 00:18:29;;;;;;;10.20;4.85;;;18.60;99.90;;;;;;5078325;28;20093;-74
2023/06/13 00:20:55;;;;;;;11.02;5.50;;;18.60;99.90;;;;;;5082008;28;20504;-73
2023/06/13 00:23:22;;;;;;;7.03;4.97;;;18.50;99.90;;;;;;5076850;28;20103;-74
2023/06/13 00:25:48;;;;;;;8.73;4.97;;;18.70;99.90;;;;;;5075926;28;20039;-74
2023/06/13 00:28:13;;;;;;;9.38;4.80;;;18.90;99.90;;;;;;5082272;28;20040;-73
2023/06/13 00:30:39;;;;;;;7.57;5.00;;;19.00;99.90;;;;;;5069114;28;20549;-74
2023/06/13 00:33:06;;;;;;;8.70;5.50;;;19.00;99.90;;;;;;5076317;28;20028;-74
2023/06/13 00:35:32;;;;;;;6.00;5.18;;;18.50;99.90;;;;;;5078602;28;20285;-74
2023/06/13 00:37:57;;;;;;;6.60;4.63;;;18.40;99.90;;;;;;5076106;28;20076;-74
2023/06/13 00:40:24;;;;;;;8.17;5.73;;;18.50;99.90;;;;;;5078305;28;20071;-73
2023/06/13 00:42:53;;;;;;;9.25;5.82;;;18.60;99.90;;;;;;5072400;28;20024;-74
2023/06/13 00:45:22;;;;;;;7.57;5.72;;;18.60;99.90;;;;;;5084483;28;20028;-74
2023/06/13 00:47:51;;;;;;;13.57;5.60;;;18.40;99.90;;;;;;5080693;28;20031;-74
2023/06/13 00:50:26;;;;;;;13.07;6.28;;;18.40;99.90;;;;;;5073308;28;20035;-74
2023/06/13 00:52:52;;;;;;;15.70;5.80;;;18.20;99.90;;;;;;5077267;28;20032;-74
2023/06/13 00:55:18;;;;;;;9.77;5.47;;;18.10;99.90;;;;;;5080264;28;20066;-73
2023/06/13 00:57:43;;;;;;;16.30;6.13;;;18.20;99.90;;;;;;5078679;28;20036;-74
2023/06/13 01:00:09;;;;;;;9.23;5.83;;;18.50;99.90;;;;;;5080963;28;20037;-74
2023/06/13 01:02:35;;;;;;;12.75;5.60;;;18.60;99.90;;;;;;5081249;28;20024;-74
2023/06/13 01:05:05;;;;;;;10.00;5.10;;;18.60;99.90;;;;;;5080300;28;20024;-74
2023/06/13 01:07:33;;;;;;;10.80;5.93;;;18.40;99.90;;;;;;5060217;28;20028;-74
2023/06/13 01:10:00;;;;;;;8.75;5.20;;;18.40;99.90;;;;;;5074921;28;20078;-74
2023/06/13 01:12:32;;;;;;;9.93;5.65;;;18.50;99.90;;;;;;5079769;28;20488;-74
2023/06/13 01:15:08;;;;;;;8.02;5.30;;;18.70;99.90;;;;;;5075939;28;20028;-74
2023/06/13 01:17:57;;;;;;;10.07;6.30;;;18.50;99.90;;;;;;5077851;28;20589;-74
2023/06/13 01:20:26;;;;;;;9.57;5.47;;;18.50;99.90;;;;;;5079151;28;20031;-74
2023/06/13 01:22:54;;;;;;;9.77;5.32;;;18.50;99.90;;;;;;5076146;28;20456;-74
2023/06/13 01:26:00;;;;;;;7.72;5.30;;;18.60;99.90;;;;;;5079015;28;20489;-74
2023/06/13 01:28:30;;;;;;;8.18;4.85;;;18.40;99.90;;;;;;5084072;28;20043;-74
2023/06/13 01:30:56;;;;;;;10.13;5.70;;;18.20;99.90;;;;;;5073754;28;20020;-74
2023/06/13 01:33:23;;;;;;;8.45;5.22;;;18.30;99.90;;;;;;5078065;28;20047;-74
2023/06/13 01:35:49;;;;;;;8.55;4.82;;;18.10;99.90;;;;;;5082488;28;20036;-73
2023/06/13 01:38:15;;;;;;;9.77;5.50;;;18.10;99.90;;;;;;5061434;28;20098;-74
2023/06/13 01:40:40;;;;;;;20.77;5.63;;;18.10;99.90;;;;;;5077024;28;20020;-74
2023/06/13 01:43:06;;;;;;;8.83;5.00;;;18.00;99.90;;;;;;5070237;28;20036;-73
2023/06/13 01:45:31;;;;;;;7.27;4.87;;;18.00;99.90;;;;;;5081530;28;20031;-74
2023/06/13 01:48:12;;;;;;;7.57;4.40;;;18.00;99.90;;;;;;5078152;28;20012;-73
2023/06/13 01:51:03;;;;;;;8.65;4.95;;;18.10;99.90;;;;;;5072492;28;20278;-74
2023/06/13 01:53:52;;;;;;;12.32;4.82;;;18.10;99.90;;;;;;5063263;28;20066;-74
2023/06/13 01:56:22;;;;;;;10.00;3.75;;;18.10;99.90;;;;;;5080208;28;20024;-73
2023/06/13 01:59:00;;;;;;;12.25;4.55;;;17.90;99.90;;;;;;5061382;28;20414;-74
2023/06/13 02:01:32;;;;;;;9.13;4.07;;;18.00;99.90;;;;;;5075278;28;20025;-74
2023/06/13 02:03:58;;;;;;;10.05;3.90;;;18.00;99.90;;;;;;5077331;28;20055;-74
2023/06/13 02:06:24;;;;;;;12.95;4.70;;;18.00;99.90;;;;;;5077578;28;20043;-74
2023/06/13 02:08:49;;;;;;;9.07;3.80;;;17.80;99.90;;;;;;5077593;28;20037;-73
2023/06/13 02:11:15;;;;;;;7.53;4.57;;;18.00;99.90;;;;;;5080699;28;20029;-73
2023/06/13 02:13:41;;;;;;;7.93;4.53;;;17.90;99.90;;;;;;5071349;28;20100;-74
2023/06/13 02:16:06;;;;;;;5.47;4.13;;;18.10;99.90;;;;;;5079824;28;20166;-74
2023/06/13 02:18:32;;;;;;;7.40;4.57;;;18.20;99.90;;;;;;5076452;28;20012;-73
2023/06/13 02:20:58;;;;;;;9.83;4.67;;;18.30;99.90;;;;;;5076040;28;20039;-74
2023/06/13 02:23:23;;;;;;;8.77;5.17;;;18.20;99.90;;;;;;5076955;28;20270;-74
2023/06/13 02:25:51;;;;;;;9.07;4.17;;;18.40;99.90;;;;;;5079476;28;20514;-74
2023/06/13 02:28:18;;;;;;;8.85;4.47;;;18.40;99.90;;;;;;5088611;28;20040;-74
2023/06/13 02:30:44;;;;;;;10.25;4.45;;;18.10;99.90;;;;;;5077301;28;20514;-74
2023/06/13 02:33:10;;;;;;;7.65;4.57;;;18.20;99.90;;;;;;5080715;28;20043;-73
2023/06/13 02:35:36;;;;;;;11.15;4.40;;;18.40;99.90;;;;;;5084592;28;20028;-73
2023/06/13 02:38:06;;;;;;;13.60;5.90;;;18.40;99.90;;;;;;5081506;28;20043;-74
2023/06/13 02:40:32;;;;;;;10.68;4.60;;;18.40;99.90;;;;;;5080772;28;20948;-74
2023/06/13 02:42:58;;;;;;;14.23;4.90;;;18.40;99.90;;;;;;5074996;28;20035;-73
2023/06/13 02:45:23;;;;;;;9.30;4.77;;;18.50;99.90;;;;;;5083750;28;20040;-74
2023/06/13 02:47:50;;;;;;;9.87;4.73;;;18.60;99.90;;;;;;5084436;28;20298;-74
2023/06/13 02:50:16;;;;;;;8.38;4.75;;;18.60;99.90;;;;;;5084489;28;20116;-74
2023/06/13 02:52:42;;;;;;;10.30;4.50;;;18.60;99.90;;;;;;5084917;28;20063;-74
2023/06/13 02:55:08;;;;;;;10.83;4.87;;;18.50;99.90;;;;;;5081582;28;20540;-74
2023/06/13 02:57:36;;;;;;;10.07;4.80;;;18.30;99.90;;;;;;5080744;28;20145;-74
2023/06/13 03:00:04;;;;;;;15.93;5.35;;;18.30;99.90;;;;;;5080487;28;20047;-74
2023/06/13 03:02:31;;;;;;;12.30;4.38;;;18.40;99.90;;;;;;5079049;28;20415;-74
2023/06/13 03:04:57;;;;;;;14.43;4.85;;;18.50;99.90;;;;;;5079105;28;20038;-74
2023/06/13 03:07:23;;;;;;;9.10;4.60;;;18.60;99.90;;;;;;5085446;28;20032;-75
2023/06/13 03:09:49;;;;;;;;;;;18.50;99.90;;;;;;5086847;28;20103;-74
2023/06/13 03:12:16;;;;;;;6.18;4.50;;;18.60;99.90;;;;;;5085198;28;20030;-74
2023/06/13 03:14:42;;;;;;;6.35;4.65;;;18.50;99.90;;;;;;5082814;28;20020;-74
2023/06/13 03:17:08;;;;;;;5.80;4.70;;;18.50;99.90;;;;;;5076255;28;20037;-74
2023/06/13 03:19:34;;;;;;;11.15;4.97;;;18.50;99.90;;;;;;5079941;28;20028;-73
2023/06/13 03:22:00;;;;;;;5.93;3.90;;;18.60;99.90;;;;;;5084903;28;20106;-73
2023/06/13 03:24:26;;;;;;;12.35;5.63;;;18.60;99.90;;;;;;5081864;28;20033;-74
2023/06/13 03:26:51;;;;;;;13.32;4.25;;;18.60;99.90;;;;;;5078160;28;20027;-73
2023/06/13 03:29:17;;;;;;;9.97;5.53;;;18.60;99.90;;;;;;5081491;28;20036;-74
2023/06/13 03:31:43;;;;;;;15.20;5.37;;;18.60;99.90;;;;;;5077608;28;20078;-73
2023/06/13 03:34:08;;;;;;;6.63;4.63;;;18.40;99.90;;;;;;5079911;28;20510;-74
2023/06/13 03:36:34;;;;;;;7.57;4.43;;;18.50;99.90;;;;;;5082596;28;20028;-73
2023/06/13 03:39:00;;;;;;;10.15;3.92;;;18.40;99.90;;;;;;5075592;28;20039;-74
2023/06/13 03:41:26;;;;;;;7.57;4.45;;;18.40;99.90;;;;;;5078659;28;20115;-74
2023/06/13 03:43:52;;;;;;;8.67;4.37;;;18.50;99.90;;;;;;5078119;28;20051;-75
2023/06/13 03:46:17;;;;;;;9.90;4.70;;;18.60;99.90;;;;;;5083077;28;20041;-74
2023/06/13 03:48:43;;;;;;;8.83;4.30;;;18.60;99.90;;;;;;5077746;28;20032;-74
2023/06/13 03:51:09;;;;;;;8.93;4.23;;;18.70;99.90;;;;;;5086348;28;20046;-74
2023/06/13 03:53:34;;;;;;;8.20;6.47;;;18.70;99.90;;;;;;5080490;28;20020;-76
2023/06/13 03:56:00;;;;;;;10.50;4.70;;;18.60;99.90;;;;;;5075055;28;20716;-75
2023/06/13 03:58:26;;;;;;;6.68;4.35;;;18.60;99.90;;;;;;5076753;28;20115;-74
2023/06/13 04:00:54;;;;;;;16.80;5.17;;;18.70;99.90;;;;;;5081645;28;20119;-74
2023/06/13 04:03:19;;;;;;;7.65;4.82;;;18.50;99.90;;;;;;5077875;28;20352;-74
2023/06/13 04:05:45;;;;;;;9.27;4.20;;;18.60;99.90;;;;;;5076910;28;20476;-74
2023/06/13 04:08:11;;;;;;;6.23;4.43;;;18.50;99.90;;;;;;5080158;28;20395;-76
2023/06/13 04:10:37;;;;;;;12.02;6.03;;;18.50;99.90;;;;;;5082727;28;20047;-74
2023/06/13 04:13:02;;;;;;;8.68;5.03;;;18.60;99.90;;;;;;5079522;28;20780;-75
2023/06/13 04:15:29;;;;;;;19.93;5.63;;;18.60;99.90;;;;;;5079754;28;20061;-74
2023/06/13 04:17:55;;;;;;;7.28;5.20;;;18.60;99.90;;;;;;5083946;28;20123;-74
2023/06/13 04:20:23;;;;;;;11.30;5.47;;;18.60;99.90;;;;;;5076779;28;20112;-74
2023/06/13 04:22:49;;;;;;;11.43;4.53;;;18.70;99.90;;;;;;5079626;28;20114;-74
2023/06/13 04:25:15;;;;;;;13.27;5.47;;;18.60;99.90;;;;;;5083991;28;20143;-73
2023/06/13 04:27:43;;;;;;;18.27;4.60;;;18.60;99.90;;;;;;5083260;28;20058;-74
2023/06/13 04:30:09;;;;;;;8.40;4.45;;;18.70;99.90;;;;;;5057912;28;20029;-74
2023/06/13 04:32:37;;;;;;;13.43;5.18;;;18.70;99.90;;;;;;5079625;28;20500;-74
2023/06/13 04:35:03;;;;;;;10.85;4.97;;;18.80;99.90;;;;;;5078410;28;20454;-74
2023/06/13 04:37:30;;;;;;;12.00;4.93;;;18.80;99.90;;;;;;5079189;28;20101;-73
2023/06/13 04:39:56;;;;;;;11.50;5.07;;;18.80;99.90;;;;;;5076026;28;20548;-74
2023/06/13 04:42:29;;;;;;;12.95;5.15;;;18.70;99.90;;;;;;5079759;28;20103;-73
2023/06/13 04:44:58;;;;;;;10.35;4.78;;;18.70;99.90;;;;;;5081185;28;20377;-74
2023/06/13 04:47:24;;;;;;;10.50;4.88;;;18.70;99.90;;;;;;5074102;28;20024;-74
2023/06/13 04:49:58;;;;;;;11.55;4.78;;;18.70;99.90;;;;;;5078542;28;20028;-74
2023/06/13 04:52:29;;;;;;;18.10;4.88;;;18.80;99.90;;;;;;5081526;28;20100;-74
2023/06/13 04:54:56;;;;;;;11.95;5.13;;;18.80;99.90;;;;;;5071620;28;20032;-75
2023/06/13 04:57:22;;;;;;;10.98;4.60;;;18.90;99.90;;;;;;5077930;28;20028;-74
2023/06/13 04:59:48;;;;;;;13.80;4.87;;;19.00;99.90;;;;;;5080453;28;20035;-74
2023/06/13 05:02:14;;;;;;;19.90;5.97;;;18.90;99.90;;;;;;5075377;28;20059;-74
2023/06/13 05:04:40;;;;;;;9.95;5.85;;;18.90;99.90;;;;;;5069018;28;20534;-74
2023/06/13 05:07:06;;;;;;;13.23;6.45;;;19.00;99.90;;;;;;5083723;28;20116;-76
2023/06/13 05:09:32;;;;;;;12.82;7.32;;;19.00;99.90;;;;;;5081983;28;20028;-75
2023/06/13 05:11:58;;;;;;;17.58;6.38;;;19.00;99.90;;;;;;5079754;28;20110;-74
2023/06/13 05:14:23;;;;;;;12.20;6.03;;;19.00;99.90;;;;;;5079631;28;20115;-75
2023/06/13 05:16:50;;;;;;;14.87;6.90;;;19.00;99.90;;;;;;5073805;28;20049;-75
2023/06/13 05:19:17;;;;;;;10.93;6.20;;;18.80;99.90;;;;;;5076817;28;20440;-74
2023/06/13 05:21:43;;;;;;;12.85;6.57;;;18.80;99.90;;;;;;5086590;28;20030;-74
2023/06/13 05:24:10;;;;;;;13.57;7.73;;;18.80;99.90;;;;;;5079142;28;20403;-74
2023/06/13 05:26:36;;;;;;;17.02;7.75;;;18.80;99.90;;;;;;5078030;28;20043;-74
2023/06/13 05:29:05;;;;;;;10.60;7.05;;;18.90;99.90;;;;;;5084727;28;20042;-74
2023/06/13 05:31:33;;;;;;;16.90;6.90;;;19.00;99.90;;;;;;5080035;28;20081;-74
2023/06/13 05:34:00;;;;;;;16.88;8.32;;;19.00;99.90;;;;;;5078038;28;20025;-74
2023/06/13 05:36:26;;;;;;;13.55;7.35;;;19.00;99.90;;;;;;5079679;28;20036;-75
2023/06/13 05:38:54;;;;;;;14.18;7.40;;;19.00;99.90;;;;;;5081904;28;20032;-74
2023/06/13 05:41:19;;;;;;;10.60;6.97;;;19.00;99.90;;;;;;5077822;28;20120;-74
2023/06/13 05:43:45;;;;;;;8.70;7.43;;;19.00;99.90;;;;;;5077305;28;20099;-74
2023/06/13 05:46:10;;;;;;;18.90;7.07;;;18.90;99.90;;;;;;5076385;28;20116;-74
2023/06/13 05:48:36;;;;;;;15.13;7.70;;;19.00;99.90;;;;;;5057887;28;20024;-74
2023/06/13 05:51:03;;;;;;;11.57;7.40;;;19.00;99.90;;;;;;5083538;28;20506;-74
2023/06/13 05:53:30;;;;;;;18.30;7.63;;;19.00;99.90;;;;;;5078750;28;20027;-74
2023/06/13 05:55:55;;;;;;;;;;;19.10;99.90;;;;;;5056488;28;20021;-74
2023/06/13 05:58:21;;;;;;;11.82;7.57;;;19.00;99.90;;;;;;5080978;28;19916;-75
2023/06/13 06:00:47;;;;;;;16.67;7.47;;;19.00;99.90;;;;;;5080000;28;20467;-74
2023/06/13 06:03:13;;;;;;;13.30;6.93;;;19.10;99.90;;;;;;5073267;28;20059;-74
2023/06/13 06:05:39;;;;;;;13.55;7.40;;;19.10;99.90;;;;;;5076285;28;20439;-74
2023/06/13 06:08:05;;;;;;;13.50;7.17;;;19.10;99.90;;;;;;5078332;28;20016;-75
2023/06/13 06:10:31;;;;;;;14.13;7.88;;;19.20;99.90;;;;;;5081187;28;20278;-75
2023/06/13 06:12:56;;;;;;;14.93;8.60;;;19.20;99.90;;;;;;5077904;28;20089;-75
2023/06/13 06:15:22;;;;;;;20.50;7.27;;;19.30;99.90;;;;;;5057573;28;20029;-74
2023/06/13 06:17:48;;;;;;;11.90;7.60;;;19.30;99.90;;;;;;5075191;28;20047;-75
2023/06/13 06:20:14;;;;;;;14.73;8.20;;;19.10;99.90;;;;;;5080096;28;20285;-75
2023/06/13 06:22:39;;;;;;;14.13;8.48;;;19.20;99.90;;;;;;5077764;28;20118;-75
2023/06/13 06:25:08;;;;;;;15.17;8.30;;;19.30;99.90;;;;;;5076535;28;20078;-75
2023/06/13 06:27:34;;;;;;;12.75;8.00;;;19.40;99.90;;;;;;5074556;28;20066;-75
2023/06/13 06:29:59;;;;;;;17.63;8.50;;;19.50;99.90;;;;;;5078187;28;20064;-75
2023/06/13 06:32:25;;;;;;;18.27;8.40;;;19.40;99.90;;;;;;5083755;28;20508;-74
2023/06/13 06:34:51;;;;;;;14.37;7.37;;;19.50;99.90;;;;;;5077925;28;20023;-75
2023/06/13 06:37:16;;;;;;;17.23;7.97;;;19.50;99.90;;;;;;5076486;28;20484;-75
2023/06/13 06:39:42;;;;;;;13.83;8.03;;;19.60;99.90;;;;;;5078440;28;20043;-75
2023/06/13 06:42:08;;;;;;;13.90;8.47;;;19.60;99.90;;;;;;5076998;28;20032;-75
2023/06/13 06:44:33;;;;;;;14.07;7.93;;;19.80;99.90;;;;;;5077668;28;20028;-75
2023/06/13 06:46:59;;;;;;;18.23;8.07;;;19.80;99.90;;;;;;5076771;28;20730;-75
2023/06/13 06:49:24;;;;;;;15.83;7.60;;;19.90;99.90;;;;;;5078622;28;20028;-75
2023/06/13 06:51:50;;;;;;;8.80;7.33;;;20.00;99.90;;;;;;5076606;28;20036;-74
2023/06/13 06:54:16;;;;;;;14.07;7.67;;;20.10;99.90;;;;;;5060710;28;20035;-75
2023/06/13 06:56:41;;;;;;;14.73;7.43;;;20.10;99.90;;;;;;5076362;28;20052;-74
2023/06/13 06:59:07;;;;;;;10.53;7.37;;;20.30;99.90;;;;;;5081863;28;20035;-75
2023/06/13 07:01:32;;;;;;;10.43;7.10;;;20.40;99.90;;;;;;5076591;28;20039;-75
2023/06/13 07:03:58;;;;;;;9.03;6.97;;;20.60;99.90;;;;;;5074217;28;20530;-74
2023/06/13 07:06:23;;;;;;;14.97;7.53;;;20.60;99.90;;;;;;5080039;28;20081;-75
2023/06/13 07:08:49;;;;;;;14.50;8.00;;;20.80;99.90;;;;;;5054444;28;20331;-75
2023/06/13 07:11:15;;;;;;;14.37;6.93;;;20.80;99.90;;;;;;5074414;28;20805;-75
2023/06/13 07:13:41;;;;;;;10.47;6.83;;;20.90;99.90;;;;;;5082396;28;20044;-75
2023/06/13 07:16:06;;;;;;;14.88;6.55;;;21.00;99.90;;;;;;5080952;28;20036;-75
2023/06/13 07:18:32;;;;;;;14.93;7.60;;;21.10;99.90;;;;;;5061854;28;20273;-75
2023/06/13 07:20:57;;;;;;;10.87;6.93;;;21.20;99.90;;;;;;5080969;28;20520;-75
2023/06/13 07:23:23;;;;;;;13.70;6.30;;;21.30;99.90;;;;;;5062724;28;20043;-75
2023/06/13 07:25:48;;;;;;;11.77;6.53;;;21.30;99.90;;;;;;5083160;28;20021;-75
2023/06/13 07:28:14;;;;;;;12.37;6.77;;;21.40;99.90;;;;;;5080085;28;20036;-75
2023/06/13 07:30:40;;;;;;;13.67;6.73;;;21.40;99.90;;;;;;5076988;28;20094;-75
2023/06/13 07:33:05;;;;;;;13.30;6.33;;;21.30;99.90;;;;;;5084636;28;20052;-75
2023/06/13 07:35:32;;;;;;;9.63;5.68;;;21.30;99.90;;;;;;5076585;28;20036;-74
2023/06/13 07:37:58;;;;;;;14.73;6.45;;;21.50;99.90;;;;;;5079661;28;20067;-75
2023/06/13 07:40:24;;;;;;;9.00;5.82;;;21.70;99.90;;;;;;5081551;28;20055;-75
2023/06/13 07:42:50;;;;;;;11.10;6.60;;;21.60;99.90;;;;;;5080539;28;20073;-75
2023/06/13 07:45:16;;;;;;;9.60;5.28;;;21.10;99.90;;;;;;5081079;28;20333;-75
2023/06/13 07:47:42;;;;;;;13.98;5.43;;;20.90;99.90;;;;;;5082180;28;20024;-75
2023/06/13 07:50:08;;;;;;;14.10;5.57;;;20.80;99.90;;;;;;5080479;28;20040;-75
2023/06/13 07:52:33;;;;;;;9.02;5.18;;;21.40;99.90;;;;;;5079098;28;20404;-75
2023/06/13 07:54:59;;;;;;;8.88;5.45;;;21.10;99.90;;;;;;5080434;28;20487;-74
2023/06/13 07:57:25;;;;;;;7.32;5.20;;;21.40;99.90;;;;;;5082092;28;20220;-75
2023/06/13 07:59:51;;;;;;;9.17;5.53;;;21.40;99.90;;;;;;5078056;28;20389;-74
2023/06/13 08:02:17;;;;;;;9.07;5.00;;;21.20;99.90;;;;;;5076409;28;20480;-74
2023/06/13 08:04:42;;;;;;;9.10;4.90;;;21.50;99.90;;;;;;5081456;28;20728;-75
2023/06/13 08:07:09;;;;;;;12.97;5.57;;;21.10;99.90;;;;;;5081914;28;20032;-75
2023/06/13 08:09:34;;;;;;;;;;;21.00;99.90;;;;;;5076736;28;20054;-74
2023/06/13 08:12:00;;;;;;;5.25;3.72;;;21.40;99.90;;;;;;5073684;28;20666;-75
2023/06/13 08:14:25;;;;;;;10.70;4.37;;;21.00;99.90;;;;;;5083451;28;20111;-75
2023/06/13 08:16:51;;;;;;;9.83;4.97;;;20.60;99.90;;;;;;5077874;28;20055;-75
2023/06/13 08:19:17;;;;;;;7.23;5.07;;;21.00;99.90;;;;;;5078859;28;20059;-74
2023/06/13 08:21:43;;;;;;;10.85;4.80;;;20.80;99.90;;;;;;5077635;28;20030;-75
2023/06/13 08:24:09;;;;;;;10.90;5.20;;;20.50;99.90;;;;;;5077629;28;20400;-75
2023/06/13 08:26:34;;;;;;;7.73;5.43;;;20.60;99.90;;;;;;5077196;28;20032;-74
2023/06/13 08:29:04;;;;;;;13.70;5.50;;;20.70;99.90;;;;;;5084823;28;20288;-75
2023/06/13 08:31:31;;;;;;;6.72;4.93;;;21.10;99.90;;;;;;5079891;28;20038;-74
2023/06/13 08:33:58;;;;;;;7.95;4.40;;;21.20;99.90;;;;;;5077632;28;20028;-75
2023/06/13 08:36:25;;;;;;;7.30;4.45;;;21.40;99.90;;;;;;5083534;28;20077;-75
2023/06/13 08:38:59;;;;;;;7.78;4.30;;;21.30;99.90;;;;;;5075938;28;20037;-75
2023/06/13 08:41:27;;;;;;;6.97;4.22;;;21.30;99.90;;;;;;5075499;28;20094;-74
2023/06/13 08:43:54;;;;;;;7.80;3.97;;;21.70;99.90;;;;;;5074219;28;20077;-75
2023/06/13 08:46:19;;;;;;;8.00;3.45;;;21.90;99.90;;;;;;5079163;28;20472;-74
2023/06/13 08:48:45;;;;;;;8.43;3.70;;;21.90;99.90;;;;;;5074988;28;20074;-74
2023/06/13 08:51:16;;;;;;;5.05;3.65;;;22.00;99.90;;;;;;5081724;28;20032;-74
2023/06/13 08:53:49;;;;;;;9.18;4.03;;;22.10;99.90;;;;;;5071428;28;20024;-75
2023/06/13 08:56:15;;;;;;;11.10;3.75;;;22.30;99.90;;;;;;5078715;28;20559;-74
2023/06/13 08:58:43;;;;;;;5.68;3.95;;;22.20;99.90;;;;;;5078121;28;20539;-75
2023/06/13 09:01:10;;;;;;;6.10;3.92;;;22.30;99.90;;;;;;5079493;28;20048;-74
2023/06/13 09:03:37;;;;;;;8.25;4.32;;;22.50;99.90;;;;;;5077380;28;20048;-74
2023/06/13 09:06:04;;;;;;;6.57;3.67;;;22.80;99.90;;;;;;5098684;27;20046;-75
2023/06/13 09:08:31;;;;;;;4.10;3.60;;;22.80;99.90;;;;;;5077390;28;20030;-75
2023/06/13 09:10:58;;;;;;;7.93;4.07;;;23.50;99.90;;;;;;5082423;28;20624;-76
2023/06/13 09:13:26;;;;;;;6.32;3.80;;;23.90;99.90;;;;;;5055654;28;20032;-76
2023/06/13 09:15:52;;;;;;;9.40;3.63;;;23.70;99.90;;;;;;5077747;28;20165;-76
2023/06/13 09:18:18;;;;;;;5.90;3.90;;;23.70;99.90;;;;;;5077470;28;20106;-75
2023/06/13 09:20:44;;;;;;;4.75;2.90;;;24.50;99.90;;;;;;5057874;28;20027;-75
2023/06/13 09:23:15;;;;;;;4.13;3.20;;;25.80;99.90;;;;;;5079634;28;20450;-76
2023/06/13 09:25:44;;;;;;;4.78;2.55;;;26.00;99.90;;;;;;5074818;28;20464;-75
2023/06/13 09:28:29;;;;;;;2.78;2.35;;;27.30;96.10;;;;;;5078879;28;20081;-75
2023/06/13 09:30:56;;;;;;;6.75;2.15;;;29.10;95.70;;;;;;5057953;28;20127;-75
2023/06/13 09:33:22;;;;;;;2.90;2.60;;;30.60;81.50;;;;;;5077395;28;20066;-74
2023/06/13 09:35:50;;;;;;;2.88;2.15;;;32.50;79.30;;;;;;5073703;28;20024;-69
2023/06/13 09:38:21;;;;;;;4.03;2.13;;;35.50;70.40;;;;;;5078757;28;20378;-67
2023/06/13 09:40:47;;;;;;;8.55;2.20;;;33.70;69.70;;;;;;5076739;28;20024;-68
2023/06/13 09:43:13;;;;;;;4.95;2.42;;;31.30;77.80;;;;;;5071931;28;20028;-68
2023/06/13 09:45:39;;;;;;;3.97;2.38;;;30.30;83.50;;;;;;5079832;28;20066;-68
2023/06/13 09:48:05;;;;;;;;;;;29.90;89.80;;;;;;5082477;28;20532;-69
2023/06/13 09:50:31;;;;;;;4.85;2.05;;;29.60;92.40;;;;;;5072967;28;19912;-68
2023/06/13 09:52:58;;;;;;;;;;;28.90;91.20;;;;;;5078757;28;20017;-68
2023/06/13 09:55:23;;;;;;;8.73;2.50;;;28.70;92.60;;;;;;5074552;28;19989;-68
2023/06/13 09:57:52;;;;;;;7.60;2.72;;;29.50;90.80;;;;;;5074915;28;20150;-68
2023/06/13 10:00:18;;;;;;;6.55;2.67;;;31.50;82.30;;;;;;5077547;28;20067;-68
2023/06/13 10:02:44;;;;;;;4.20;2.30;;;30.00;86.50;;;;;;5071518;28;20484;-67
2023/06/13 10:05:11;;;;;;;;;;;30.90;83.20;;;;;;5063002;28;20151;-67
2023/06/13 10:07:37;;;;;;;7.93;2.55;;;34.10;74.40;;;;;;5078753;28;19908;-69
2023/06/13 10:10:03;;;;;;;4.65;2.53;;;33.10;72.30;;;;;;5080065;28;20351;-68
2023/06/13 10:12:31;;;;;;;2.83;2.15;;;31.70;75.90;;;;;;5080602;28;20127;-67
2023/06/13 10:15:00;;;;;;;2.65;1.85;;;30.30;83.10;;;;;;5081075;28;20511;-68
2023/06/13 10:17:31;;;;;;;3.85;2.63;;;29.60;78.60;;;;;;5073100;28;20032;-68
2023/06/13 10:20:07;;;;;;;5.30;2.20;;;27.60;92.10;;;;;;5080306;28;20036;-67
2023/06/13 10:22:35;;;;;;;2.67;2.03;;;27.60;93.90;;;;;;5080656;28;20039;-69
2023/06/13 10:25:02;;;;;;;3.20;1.90;;;26.70;96.90;;;;;;5057811;28;20084;-69
2023/06/13 10:27:28;;;;;;;3.97;2.67;;;26.40;98.40;;;;;;5073164;28;20120;-69
2023/06/13 10:30:06;;;;;;;3.85;2.30;;;25.70;99.40;;;;;;5075230;28;20530;-69
2023/06/13 10:32:57;;;;;;;2.50;1.98;;;25.70;99.90;;;;;;5071174;28;20496;-68
2023/06/13 10:35:31;;;;;;;4.57;2.60;;;26.20;99.90;;;;;;5076436;28;20066;-69
2023/06/13 10:38:26;;;;;;;3.22;2.58;;;27.00;98.70;;;;;;5070881;28;20055;-69
2023/06/13 10:41:16;;;;;;;3.55;2.40;;;27.40;96.40;;;;;;5074991;28;20028;-69
2023/06/13 10:43:48;;;;;;;2.90;2.70;;;27.80;96.40;;;;;;5076023;28;20675;-69
2023/06/13 10:46:15;;;;;;;2.92;2.17;;;27.80;97.20;;;;;;5073581;28;20060;-69
2023/06/13 10:48:48;;;;;;;4.03;2.53;;;27.30;96.10;;;;;;5075179;28;20024;-70
2023/06/13 10:51:21;;;;;;;7.15;3.20;;;27.20;95.60;;;;;;5080019;28;20032;-69
2023/06/13 10:54:03;;;;;;;4.30;3.10;;;27.60;98.60;;;;;;5077796;28;20021;-69
2023/06/13 10:56:30;;;;;;;4.50;2.90;;;28.30;96.00;;;;;;5079881;28;20134;-69
2023/06/13 10:59:03;;;;;;;2.83;2.63;;;28.40;96.90;;;;;;5080513;28;20077;-68
2023/06/13 11:01:31;;;;;;;6.18;2.60;;;27.60;97.00;;;;;;5081698;28;20030;-69
2023/06/13 11:04:27;;;;;;;3.05;2.17;;;27.20;96.50;;;;;;5082586;28;20507;-69
2023/06/13 11:07:22;;;;;;;4.72;2.83;;;26.80;98.10;;;;;;5072688;28;20488;-69
2023/06/13 11:10:13;;;;;;;3.50;2.90;;;27.20;99.20;;;;;;5075275;28;20025;-69
2023/06/13 11:12:41;;;;;;;4.68;2.72;;;27.20;98.00;;;;;;5080224;28;20024;-70
2023/06/13 11:15:23;;;;;;;4.88;3.03;;;26.80;98.80;;;;;;5076504;28;20032;-69
2023/06/13 11:18:07;;;;;;;3.38;3.08;;;27.00;99.70;;;;;;5075208;28;20040;-69
2023/06/13 11:20:34;;;;;;;4.45;2.92;;;26.90;99.60;;;;;;5078829;28;20112;-69
2023/06/13 11:23:01;;;;;;;3.92;3.15;;;26.80;98.20;;;;;;5074563;28;20547;-69
2023/06/13 11:25:28;;;;;;;4.05;3.33;;;26.50;99.90;;;;;;5083158;28;20073;-69
2023/06/13 11:27:54;;;;;;;4.72;3.60;;;26.20;99.90;;;;;;5076536;28;20063;-69
2023/06/13 11:30:19;;;;;;;5.35;3.95;;;26.00;99.90;;;;;;5078070;28;20048;-69
2023/06/13 11:32:47;;;;;;;4.05;3.60;;;25.90;99.90;;;;;;5078708;28;20033;-69
2023/06/13 11:35:17;;;;;;;8.35;4.82;;;26.00;99.90;;;;;;5079378;28;20431;-69
2023/06/13 11:37:50;;;;;;;7.97;4.95;;;26.00;99.90;;;;;;5075562;28;20040;-69
2023/06/13 11:40:25;;;;;;;9.15;6.10;;;25.80;99.90;;;;;;5077783;28;20082;-69
2023/06/13 11:42:51;;;;;;;7.43;5.85;;;25.40;99.90;;;;;;5080563;28;20031;-69
2023/06/13 11:45:21;;;;;;;5.47;4.57;;;25.50;99.90;;;;;;5076688;28;20028;-69
2023/06/13 11:47:46;;;;;;;5.88;5.28;;;25.60;99.90;;;;;;5082859;28;20820;-69
2023/06/13 11:50:12;;;;;;;10.07;4.47;;;25.50;99.90;;;;;;5081863;28;20055;-69
2023/06/13 11:52:38;;;;;;;7.07;6.38;;;25.50;99.90;;;;;;5079841;28;20031;-69
2023/06/13 11:55:19;;;;;;;6.35;5.18;;;25.40;99.90;;;;;;5078745;28;20024;-70
2023/06/13 11:57:46;;;;;;;5.80;5.25;;;25.50;99.90;;;;;;5077559;28;20040;-69
2023/06/13 12:00:12;;;;;;;6.35;5.43;;;25.70;99.90;;;;;;5075373;28;20028;-69
2023/06/13 12:02:39;;;;;;;7.95;6.07;;;25.90;99.90;;;;;;5081788;28;20040;-69
2023/06/13 12:05:05;;;;;;;5.57;4.93;;;26.20;99.90;;;;;;5076648;28;20505;-69
2023/06/13 12:07:33;;;;;;;6.28;4.32;;;26.20;99.90;;;;;;5074362;28;20043;-69
2023/06/13 12:09:59;;;;;;;7.55;4.40;;;26.50;99.90;;;;;;5076906;28;20028;-69
2023/06/13 12:12:25;;;;;;;6.50;3.78;;;26.60;99.90;;;;;;5076435;28;20439;-69
2023/06/13 12:14:55;;;;;;;6.85;5.97;;;26.00;99.90;;;;;;5074168;28;20042;-69
2023/06/13 12:17:21;;;;;;;7.18;6.15;;;26.40;99.90;;;;;;5078913;28;20045;-69
2023/06/13 12:19:47;;;;;;;7.47;4.35;;;26.60;99.90;;;;;;5083214;28;20036;-69
2023/06/13 12:22:15;;;;;;;7.55;5.50;;;26.70;99.90;;;;;;5072446;28;20036;-69
2023/06/13 12:24:41;;;;;;;6.15;5.32;;;26.10;99.60;;;;;;5083227;28;20039;-68
2023/06/13 12:27:07;;;;;;;4.63;3.72;;;26.10;99.90;;;;;;5079961;28;20028;-68
2023/06/13 12:29:34;;;;;;;6.13;3.88;;;26.50;99.90;;;;;;5077332;28;20024;-69
2023/06/13 12:32:03;;;;;;;5.55;3.97;;;26.40;99.90;;;;;;5072335;28;20138;-69
2023/06/13 12:34:33;;;;;;;4.65;4.00;;;26.30;99.90;;;;;;5074917;28;20058;-69
2023/06/13 12:37:02;;;;;;;4.15;3.75;;;26.20;99.90;;;;;;5059734;28;20538;-69
2023/06/13 12:39:30;;;;;;;5.32;3.58;;;25.80;99.90;;;;;;5079781;28;20205;-69
2023/06/13 12:42:03;;;;;;;6.53;3.40;;;25.80;99.90;;;;;;5074253;28;20115;-70
2023/06/13 12:44:33;;;;;;;3.85;3.55;;;25.90;99.90;;;;;;5074086;28;20035;-69
2023/06/13 12:47:02;;;;;;;6.35;3.63;;;26.30;99.90;;;;;;5074997;28;20528;-69
2023/06/13 12:49:37;;;;;;;3.60;3.30;;;26.20;98.80;;;;;;5074902;28;20024;-69